sensor_id;sensor_type;location;lat;lon;timestamp;pressure;altitude;pressure_sealevel;temperature
81909;BMP280;71372;43.514;1.512;2023-07-09T00:01:20;100069.00;;;27.61
81909;BMP280;71372;43.514;1.512;2023-07-09T00:03:46;100064.59;;;27.61
81909;BMP280;71372;43.514;1.512;2023-07-09T00:06:17;100073.25;;;27.62
81909;BMP280;71372;43.514;1.512;2023-07-09T00:08:45;100063.66;;;27.62
81909;BMP280;71372;43.514;1.512;2023-07-09T00:11:14;100055.00;;;27.62
81909;BMP280;71372;43.514;1.512;2023-07-09T00:13:40;100061.03;;;27.62
81909;BMP280;71372;43.514;1.512;2023-07-09T00:16:16;100061.84;;;27.63
81909;BMP280;71372;43.514;1.512;2023-07-09T00:18:44;100062.00;;;27.61
81909;BMP280;71372;43.514;1.512;2023-07-09T00:21:10;100067.88;;;27.63
81909;BMP280;71372;43.514;1.512;2023-07-09T00:23:36;100063.66;;;27.62
81909;BMP280;71372;43.514;1.512;2023-07-09T00:26:13;100072.28;;;27.63
81909;BMP280;71372;43.514;1.512;2023-07-09T00:28:40;100069.81;;;27.61
81909;BMP280;71372;43.514;1.512;2023-07-09T00:31:12;100067.06;;;27.63
81909;BMP280;71372;43.514;1.512;2023-07-09T00:33:39;100062.97;;;27.60
81909;BMP280;71372;43.514;1.512;2023-07-09T00:36:13;100068.19;;;27.60
81909;BMP280;71372;43.514;1.512;2023-07-09T00:38:39;100062.00;;;27.61
81909;BMP280;71372;43.514;1.512;2023-07-09T00:41:15;100065.56;;;27.60
81909;BMP280;71372;43.514;1.512;2023-07-09T00:43:44;100059.66;;;27.58
81909;BMP280;71372;43.514;1.512;2023-07-09T00:48:58;100055.56;;;27.56
81909;BMP280;71372;43.514;1.512;2023-07-09T00:51:26;100059.94;;;27.55
81909;BMP280;71372;43.514;1.512;2023-07-09T00:53:57;100053.06;;;27.54
81909;BMP280;71372;43.514;1.512;2023-07-09T00:56:40;100050.47;;;27.54
81909;BMP280;71372;43.514;1.512;2023-07-09T00:59:12;100051.44;;;27.53
81909;BMP280;71372;43.514;1.512;2023-07-09T01:01:41;100053.38;;;27.51
81909;BMP280;71372;43.514;1.512;2023-07-09T01:04:08;100048.16;;;27.51
81909;BMP280;71372;43.514;1.512;2023-07-09T01:06:45;100045.56;;;27.51
81909;BMP280;71372;43.514;1.512;2023-07-09T01:09:12;100044.88;;;27.49
81909;BMP280;71372;43.514;1.512;2023-07-09T01:11:38;100044.03;;;27.49
81909;BMP280;71372;43.514;1.512;2023-07-09T01:14:07;100044.16;;;27.47
81909;BMP280;71372;43.514;1.512;2023-07-09T01:16:37;100036.34;;;27.47
81909;BMP280;71372;43.514;1.512;2023-07-09T01:19:04;100038.28;;;27.45
81909;BMP280;71372;43.514;1.512;2023-07-09T01:21:31;100039.09;;;27.46
81909;BMP280;71372;43.514;1.512;2023-07-09T01:23:58;100036.66;;;27.44
81909;BMP280;71372;43.514;1.512;2023-07-09T01:26:26;100035.00;;;27.43
81909;BMP280;71372;43.514;1.512;2023-07-09T01:28:53;100036.91;;;27.41
81909;BMP280;71372;43.514;1.512;2023-07-09T01:31:20;100032.53;;;27.42
81909;BMP280;71372;43.514;1.512;2023-07-09T01:33:49;100019.66;;;27.41
81909;BMP280;71372;43.514;1.512;2023-07-09T01:36:19;100027.59;;;27.39
81909;BMP280;71372;43.514;1.512;2023-07-09T01:38:50;100024.19;;;27.39
81909;BMP280;71372;43.514;1.512;2023-07-09T01:41:16;100019.22;;;27.36
81909;BMP280;71372;43.514;1.512;2023-07-09T01:43:43;100021.84;;;27.36
81909;BMP280;71372;43.514;1.512;2023-07-09T01:46:11;100020.19;;;27.35
81909;BMP280;71372;43.514;1.512;2023-07-09T01:48:41;100021.00;;;27.35
81909;BMP280;71372;43.514;1.512;2023-07-09T01:51:12;100022.81;;;27.35
81909;BMP280;71372;43.514;1.512;2023-07-09T01:53:40;100019.53;;;27.33
81909;BMP280;71372;43.514;1.512;2023-07-09T01:56:06;100010.84;;;27.32
81909;BMP280;71372;43.514;1.512;2023-07-09T01:58:36;100021.41;;;27.31
81909;BMP280;71372;43.514;1.512;2023-07-09T02:01:07;100012.78;;;27.30
81909;BMP280;71372;43.514;1.512;2023-07-09T02:03:34;100019.78;;;27.30
81909;BMP280;71372;43.514;1.512;2023-07-09T02:06:00;100006.09;;;27.28
81909;BMP280;71372;43.514;1.512;2023-07-09T02:08:28;100007.88;;;27.27
81909;BMP280;71372;43.514;1.512;2023-07-09T02:10:54;99997.72;;;27.24
81909;BMP280;71372;43.514;1.512;2023-07-09T02:13:20;100012.50;;;27.24
81909;BMP280;71372;43.514;1.512;2023-07-09T02:15:45;100001.28;;;27.23
81909;BMP280;71372;43.514;1.512;2023-07-09T02:18:13;100001.41;;;27.22
81909;BMP280;71372;43.514;1.512;2023-07-09T02:20:38;99997.41;;;27.18
81909;BMP280;71372;43.514;1.512;2023-07-09T02:23:07;99997.66;;;27.15
81909;BMP280;71372;43.514;1.512;2023-07-09T02:25:34;99995.78;;;27.17
81909;BMP280;71372;43.514;1.512;2023-07-09T02:28:00;99993.16;;;27.17
81909;BMP280;71372;43.514;1.512;2023-07-09T02:30:26;99990.56;;;27.17
81909;BMP280;71372;43.514;1.512;2023-07-09T02:32:51;99994.13;;;27.16
81909;BMP280;71372;43.514;1.512;2023-07-09T02:35:23;99991.53;;;27.16
81909;BMP280;71372;43.514;1.512;2023-07-09T02:37:48;99992.47;;;27.15
81909;BMP280;71372;43.514;1.512;2023-07-09T02:40:15;99989.88;;;27.15
81909;BMP280;71372;43.514;1.512;2023-07-09T02:42:41;99990.72;;;27.16
81909;BMP280;71372;43.514;1.512;2023-07-09T02:45:08;99974.38;;;27.14
81909;BMP280;71372;43.514;1.512;2023-07-09T02:47:34;99983.97;;;27.13
81909;BMP280;71372;43.514;1.512;2023-07-09T02:50:00;99977.97;;;27.13
81909;BMP280;71372;43.514;1.512;2023-07-09T02:52:26;99981.53;;;27.12
81909;BMP280;71372;43.514;1.512;2023-07-09T02:54:52;99978.09;;;27.11
81909;BMP280;71372;43.514;1.512;2023-07-09T02:57:18;99978.22;;;27.10
81909;BMP280;71372;43.514;1.512;2023-07-09T02:59:44;99976.47;;;27.10
81909;BMP280;71372;43.514;1.512;2023-07-09T03:02:10;99973.16;;;27.08
81909;BMP280;71372;43.514;1.512;2023-07-09T03:04:36;99971.38;;;27.09
81909;BMP280;71372;43.514;1.512;2023-07-09T03:07:02;99967.94;;;27.08
81909;BMP280;71372;43.514;1.512;2023-07-09T03:09:28;99971.50;;;27.07
81909;BMP280;71372;43.514;1.512;2023-07-09T03:11:54;99996.72;;;27.07
81909;BMP280;71372;43.514;1.512;2023-07-09T03:14:20;99994.25;;;27.05
81909;BMP280;71372;43.514;1.512;2023-07-09T03:16:46;100000.41;;;27.04
81909;BMP280;71372;43.514;1.512;2023-07-09T03:19:12;99995.34;;;27.03
81909;BMP280;71372;43.514;1.512;2023-07-09T03:21:38;100003.97;;;27.03
81909;BMP280;71372;43.514;1.512;2023-07-09T03:24:04;100011.91;;;27.02
81909;BMP280;71372;43.514;1.512;2023-07-09T03:26:31;100015.47;;;27.01
81909;BMP280;71372;43.514;1.512;2023-07-09T03:28:56;100014.66;;;27.00
81909;BMP280;71372;43.514;1.512;2023-07-09T03:31:23;100008.63;;;27.00
81909;BMP280;71372;43.514;1.512;2023-07-09T03:33:50;100023.41;;;26.99
81909;BMP280;71372;43.514;1.512;2023-07-09T03:36:17;100023.41;;;26.99
81909;BMP280;71372;43.514;1.512;2023-07-09T03:38:44;100029.56;;;26.98
81909;BMP280;71372;43.514;1.512;2023-07-09T03:41:10;100031.47;;;26.96
81909;BMP280;71372;43.514;1.512;2023-07-09T03:43:36;100041.88;;;26.96
81909;BMP280;71372;43.514;1.512;2023-07-09T03:46:02;100046.25;;;26.96
81909;BMP280;71372;43.514;1.512;2023-07-09T03:48:28;100048.03;;;26.95
81909;BMP280;71372;43.514;1.512;2023-07-09T03:50:54;100043.81;;;26.94
81909;BMP280;71372;43.514;1.512;2023-07-09T03:53:20;100042.16;;;26.93
81909;BMP280;71372;43.514;1.512;2023-07-09T03:55:46;100044.78;;;26.93
81909;BMP280;71372;43.514;1.512;2023-07-09T03:58:16;100038.84;;;26.91
81909;BMP280;71372;43.514;1.512;2023-07-09T04:00:42;100034.63;;;26.91
81909;BMP280;71372;43.514;1.512;2023-07-09T04:03:08;100029.41;;;26.91
81909;BMP280;71372;43.514;1.512;2023-07-09T04:05:34;100038.19;;;26.90
81909;BMP280;71372;43.514;1.512;2023-07-09T04:08:00;100040.78;;;26.90
81909;BMP280;71372;43.514;1.512;2023-07-09T04:10:26;100036.53;;;26.89
81909;BMP280;71372;43.514;1.512;2023-07-09T04:12:53;100032.16;;;26.89
81909;BMP280;71372;43.514;1.512;2023-07-09T04:15:18;100033.13;;;26.88
81909;BMP280;71372;43.514;1.512;2023-07-09T04:17:44;100039.25;;;26.87
81909;BMP280;71372;43.514;1.512;2023-07-09T04:20:11;100032.41;;;26.86
81909;BMP280;71372;43.514;1.512;2023-07-09T04:22:38;100042.00;;;26.86
81909;BMP280;71372;43.514;1.512;2023-07-09T04:25:06;100030.75;;;26.85
81909;BMP280;71372;43.514;1.512;2023-07-09T04:27:32;100031.72;;;26.84
81909;BMP280;71372;43.514;1.512;2023-07-09T04:29:59;100038.72;;;26.84
81909;BMP280;71372;43.514;1.512;2023-07-09T04:32:25;100037.06;;;26.83
81909;BMP280;71372;43.514;1.512;2023-07-09T04:34:51;100037.06;;;26.83
81909;BMP280;71372;43.514;1.512;2023-07-09T04:37:17;100034.47;;;26.83
81909;BMP280;71372;43.514;1.512;2023-07-09T04:39:43;100038.00;;;26.82
81909;BMP280;71372;43.514;1.512;2023-07-09T04:42:12;100034.56;;;26.81
81909;BMP280;71372;43.514;1.512;2023-07-09T04:44:39;100039.78;;;26.81
81909;BMP280;71372;43.514;1.512;2023-07-09T04:47:05;100046.91;;;26.79
81909;BMP280;71372;43.514;1.512;2023-07-09T04:49:31;100045.25;;;26.78
81909;BMP280;71372;43.514;1.512;2023-07-09T04:51:57;100060.88;;;26.78
81909;BMP280;71372;43.514;1.512;2023-07-09T04:54:27;100062.66;;;26.78
81909;BMP280;71372;43.514;1.512;2023-07-09T04:56:53;100065.25;;;26.78
81909;BMP280;71372;43.514;1.512;2023-07-09T04:59:19;100058.41;;;26.77
81909;BMP280;71372;43.514;1.512;2023-07-09T05:01:46;100061.13;;;26.75
81909;BMP280;71372;43.514;1.512;2023-07-09T05:04:12;100074.94;;;26.76
81909;BMP280;71372;43.514;1.512;2023-07-09T05:06:38;100074.25;;;26.74
81909;BMP280;71372;43.514;1.512;2023-07-09T05:09:05;100076.72;;;26.75
81909;BMP280;71372;43.514;1.512;2023-07-09T05:11:34;100080.28;;;26.74
81909;BMP280;71372;43.514;1.512;2023-07-09T05:14:00;100083.84;;;26.73
81909;BMP280;71372;43.514;1.512;2023-07-09T05:16:26;100086.44;;;26.73
81909;BMP280;71372;43.514;1.512;2023-07-09T05:18:51;100088.22;;;26.73
81909;BMP280;71372;43.514;1.512;2023-07-09T05:21:17;100082.22;;;26.72
81909;BMP280;71372;43.514;1.512;2023-07-09T05:23:43;100096.28;;;26.70
81909;BMP280;71372;43.514;1.512;2023-07-09T05:26:09;100097.38;;;26.67
81909;BMP280;71372;43.514;1.512;2023-07-09T05:28:35;100100.34;;;26.63
81909;BMP280;71372;43.514;1.512;2023-07-09T05:31:01;100099.63;;;26.61
81909;BMP280;71372;43.514;1.512;2023-07-09T05:33:27;100107.69;;;26.58
81909;BMP280;71372;43.514;1.512;2023-07-09T05:35:53;100102.63;;;26.57
81909;BMP280;71372;43.514;1.512;2023-07-09T05:38:19;100101.22;;;26.53
81909;BMP280;71372;43.514;1.512;2023-07-09T05:40:45;100106.81;;;26.48
81909;BMP280;71372;43.514;1.512;2023-07-09T05:43:11;100106.41;;;26.43
81909;BMP280;71372;43.514;1.512;2023-07-09T05:45:40;100113.75;;;26.39
81909;BMP280;71372;43.514;1.512;2023-07-09T05:48:06;100114.94;;;26.35
81909;BMP280;71372;43.514;1.512;2023-07-09T05:50:33;100110.72;;;26.34
81909;BMP280;71372;43.514;1.512;2023-07-09T05:53:00;100115.91;;;26.34
81909;BMP280;71372;43.514;1.512;2023-07-09T05:55:26;100123.56;;;26.35
81909;BMP280;71372;43.514;1.512;2023-07-09T05:57:53;100121.94;;;26.34
81909;BMP280;71372;43.514;1.512;2023-07-09T06:00:19;100124.66;;;26.33
81909;BMP280;71372;43.514;1.512;2023-07-09T06:02:45;100125.72;;;26.30
81909;BMP280;71372;43.514;1.512;2023-07-09T06:05:11;100134.63;;;26.28
81909;BMP280;71372;43.514;1.512;2023-07-09T06:07:38;100134.75;;;26.26
81909;BMP280;71372;43.514;1.512;2023-07-09T06:10:08;100132.25;;;26.25
81909;BMP280;71372;43.514;1.512;2023-07-09T06:12:34;100135.00;;;26.23
81909;BMP280;71372;43.514;1.512;2023-07-09T06:15:00;100134.16;;;26.23
81909;BMP280;71372;43.514;1.512;2023-07-09T06:17:26;100127.19;;;26.23
81909;BMP280;71372;43.514;1.512;2023-07-09T06:19:52;100133.91;;;26.26
81909;BMP280;71372;43.514;1.512;2023-07-09T06:22:18;100138.28;;;26.25
81909;BMP280;71372;43.514;1.512;2023-07-09T06:24:45;100159.06;;;26.25
81909;BMP280;71372;43.514;1.512;2023-07-09T06:27:11;100156.47;;;26.25
81909;BMP280;71372;43.514;1.512;2023-07-09T06:29:37;100153.03;;;26.25
81909;BMP280;71372;43.514;1.512;2023-07-09T06:32:04;100162.63;;;26.24
81909;BMP280;71372;43.514;1.512;2023-07-09T06:34:30;100166.03;;;26.25
81909;BMP280;71372;43.514;1.512;2023-07-09T06:36:56;100163.44;;;26.25
81909;BMP280;71372;43.514;1.512;2023-07-09T06:39:23;100161.56;;;26.27
81909;BMP280;71372;43.514;1.512;2023-07-09T06:41:48;100168.41;;;26.28
81909;BMP280;71372;43.514;1.512;2023-07-09T06:44:14;100164.84;;;26.29
81909;BMP280;71372;43.514;1.512;2023-07-09T06:46:40;100163.75;;;26.31
81909;BMP280;71372;43.514;1.512;2023-07-09T06:49:06;100173.09;;;26.34
81909;BMP280;71372;43.514;1.512;2023-07-09T06:51:32;100176.38;;;26.36
81909;BMP280;71372;43.514;1.512;2023-07-09T06:53:58;100178.03;;;26.37
81909;BMP280;71372;43.514;1.512;2023-07-09T06:56:24;100186.53;;;26.39
81909;BMP280;71372;43.514;1.512;2023-07-09T06:58:50;100190.78;;;26.40
81909;BMP280;71372;43.514;1.512;2023-07-09T07:01:16;100187.91;;;26.42
81909;BMP280;71372;43.514;1.512;2023-07-09T07:03:42;100195.59;;;26.44
81909;BMP280;71372;43.514;1.512;2023-07-09T07:06:08;100178.09;;;26.46
81909;BMP280;71372;43.514;1.512;2023-07-09T07:08:35;100183.16;;;26.47
81909;BMP280;71372;43.514;1.512;2023-07-09T07:11:02;100191.78;;;26.48
81909;BMP280;71372;43.514;1.512;2023-07-09T07:13:30;100196.88;;;26.49
81909;BMP280;71372;43.514;1.512;2023-07-09T07:15:56;100205.59;;;26.48
81909;BMP280;71372;43.514;1.512;2023-07-09T07:18:22;100190.13;;;26.47
81909;BMP280;71372;43.514;1.512;2023-07-09T07:20:48;100206.31;;;26.50
81909;BMP280;71372;43.514;1.512;2023-07-09T07:23:14;100208.78;;;26.52
81909;BMP280;71372;43.514;1.512;2023-07-09T07:25:41;100207.72;;;26.54
81909;BMP280;71372;43.514;1.512;2023-07-09T07:28:07;100217.03;;;26.57
81909;BMP280;71372;43.514;1.512;2023-07-09T07:30:33;100209.22;;;26.57
81909;BMP280;71372;43.514;1.512;2023-07-09T07:32:59;100214.16;;;26.60
81909;BMP280;71372;43.514;1.512;2023-07-09T07:35:25;100213.22;;;26.61
81909;BMP280;71372;43.514;1.512;2023-07-09T07:37:51;100224.47;;;26.61
81909;BMP280;71372;43.514;1.512;2023-07-09T07:40:17;100235.44;;;26.65
81909;BMP280;71372;43.514;1.512;2023-07-09T07:42:43;100231.06;;;26.65
81909;BMP280;71372;43.514;1.512;2023-07-09T07:45:09;100238.75;;;26.67
81909;BMP280;71372;43.514;1.512;2023-07-09T07:47:35;100236.03;;;26.68
81909;BMP280;71372;43.514;1.512;2023-07-09T07:50:01;100242.88;;;26.69
81909;BMP280;71372;43.514;1.512;2023-07-09T07:52:28;100244.50;;;26.70
81909;BMP280;71372;43.514;1.512;2023-07-09T07:54:54;100240.97;;;26.71
81909;BMP280;71372;43.514;1.512;2023-07-09T07:57:23;100242.63;;;26.72
81909;BMP280;71372;43.514;1.512;2023-07-09T07:59:49;100245.22;;;26.72
81909;BMP280;71372;43.514;1.512;2023-07-09T08:02:15;100253.03;;;26.72
81909;BMP280;71372;43.514;1.512;2023-07-09T08:04:41;100251.13;;;26.74
81909;BMP280;71372;43.514;1.512;2023-07-09T08:07:08;100252.75;;;26.75
81909;BMP280;71372;43.514;1.512;2023-07-09T08:09:35;100255.50;;;26.73
81909;BMP280;71372;43.514;1.512;2023-07-09T08:12:01;100261.66;;;26.72
81909;BMP280;71372;43.514;1.512;2023-07-09T08:14:30;100268.38;;;26.75
81909;BMP280;71372;43.514;1.512;2023-07-09T08:16:56;100272.50;;;26.77
81909;BMP280;71372;43.514;1.512;2023-07-09T08:19:22;100277.56;;;26.79
81909;BMP280;71372;43.514;1.512;2023-07-09T08:21:48;100287.03;;;26.80
81909;BMP280;71372;43.514;1.512;2023-07-09T08:24:14;100292.81;;;26.83
81909;BMP280;71372;43.514;1.512;2023-07-09T08:26:40;100300.47;;;26.85
81909;BMP280;71372;43.514;1.512;2023-07-09T08:29:06;100300.34;;;26.86
81909;BMP280;71372;43.514;1.512;2023-07-09T08:31:32;100304.47;;;26.89
81909;BMP280;71372;43.514;1.512;2023-07-09T08:33:58;100306.94;;;26.90
81909;BMP280;71372;43.514;1.512;2023-07-09T08:36:23;100309.41;;;26.91
81909;BMP280;71372;43.514;1.512;2023-07-09T08:38:49;100299.00;;;26.91
81909;BMP280;71372;43.514;1.512;2023-07-09T08:41:32;100303.00;;;26.95
81909;BMP280;71372;43.514;1.512;2023-07-09T08:44:17;100293.44;;;26.96
81909;BMP280;71372;43.514;1.512;2023-07-09T08:47:02;100296.84;;;26.96
81909;BMP280;71372;43.514;1.512;2023-07-09T08:49:38;100292.34;;;26.98
81909;BMP280;71372;43.514;1.512;2023-07-09T08:52:13;100301.81;;;26.99
81909;BMP280;71372;43.514;1.512;2023-07-09T08:54:40;100299.06;;;27.01
81909;BMP280;71372;43.514;1.512;2023-07-09T08:57:26;100295.38;;;27.03
81909;BMP280;71372;43.514;1.512;2023-07-09T08:59:59;100298.81;;;27.04
81909;BMP280;71372;43.514;1.512;2023-07-09T09:02:35;100298.69;;;27.05
81909;BMP280;71372;43.514;1.512;2023-07-09T09:05:03;100315.97;;;27.06
81909;BMP280;71372;43.514;1.512;2023-07-09T09:07:41;100315.69;;;27.09
81909;BMP280;71372;43.514;1.512;2023-07-09T09:10:13;100319.09;;;27.10
81909;BMP280;71372;43.514;1.512;2023-07-09T09:12:58;100313.81;;;27.11
81909;BMP280;71372;43.514;1.512;2023-07-09T09:15:25;100314.63;;;27.12
81909;BMP280;71372;43.514;1.512;2023-07-09T09:17:54;100325.72;;;27.14
81909;BMP280;71372;43.514;1.512;2023-07-09T09:20:22;100307.38;;;27.15
81909;BMP280;71372;43.514;1.512;2023-07-09T09:23:10;100324.53;;;27.17
81909;BMP280;71372;43.514;1.512;2023-07-09T09:25:41;100314.09;;;27.17
81909;BMP280;71372;43.514;1.512;2023-07-09T09:28:08;100323.56;;;27.18
81909;BMP280;71372;43.514;1.512;2023-07-09T09:30:34;100325.22;;;27.19
81909;BMP280;71372;43.514;1.512;2023-07-09T09:33:05;100330.16;;;27.22
81909;BMP280;71372;43.514;1.512;2023-07-09T09:35:42;100331.84;;;27.23
81909;BMP280;71372;43.514;1.512;2023-07-09T09:38:19;100324.84;;;27.24
81909;BMP280;71372;43.514;1.512;2023-07-09T09:40:45;100327.22;;;27.27
81909;BMP280;71372;43.514;1.512;2023-07-09T09:43:22;100336.66;;;27.28
81909;BMP280;71372;43.514;1.512;2023-07-09T09:45:50;100340.09;;;27.28
81909;BMP280;71372;43.514;1.512;2023-07-09T09:48:20;100333.13;;;27.29
81909;BMP280;71372;43.514;1.512;2023-07-09T09:50:47;100341.59;;;27.31
81909;BMP280;71372;43.514;1.512;2023-07-09T09:53:20;100353.66;;;27.32
81909;BMP280;71372;43.514;1.512;2023-07-09T09:55:47;100351.06;;;27.32
81909;BMP280;71372;43.514;1.512;2023-07-09T09:58:15;100350.81;;;27.35
81909;BMP280;71372;43.514;1.512;2023-07-09T10:00:48;100357.44;;;27.39
81909;BMP280;71372;43.514;1.512;2023-07-09T10:03:15;100348.53;;;27.41
81909;BMP280;71372;43.514;1.512;2023-07-09T10:05:49;100354.16;;;27.46
81909;BMP280;71372;43.514;1.512;2023-07-09T10:14:38;100374.09;;;27.56
81909;BMP280;71372;43.514;1.512;2023-07-09T10:19:53;100373.13;;;27.57
81909;BMP280;71372;43.514;1.512;2023-07-09T10:22:48;100364.50;;;27.57
81909;BMP280;71372;43.514;1.512;2023-07-09T10:25:32;100373.28;;;27.56
81909;BMP280;71372;43.514;1.512;2023-07-09T10:31:16;100372.91;;;27.60
81909;BMP280;71372;43.514;1.512;2023-07-09T10:39:37;100373.13;;;27.57
81909;BMP280;71372;43.514;1.512;2023-07-09T10:42:11;100368.88;;;27.56
81909;BMP280;71372;43.514;1.512;2023-07-09T10:44:41;100378.34;;;27.57
81909;BMP280;71372;43.514;1.512;2023-07-09T10:47:29;100370.53;;;27.57
81909;BMP280;71372;43.514;1.512;2023-07-09T10:49:57;100380.94;;;27.57
81909;BMP280;71372;43.514;1.512;2023-07-09T10:52:34;100387.81;;;27.58
81909;BMP280;71372;43.514;1.512;2023-07-09T10:55:31;100384.25;;;27.59
81909;BMP280;71372;43.514;1.512;2023-07-09T10:57:58;100385.91;;;27.60
81909;BMP280;71372;43.514;1.512;2023-07-09T11:00:34;100369.06;;;27.64
81909;BMP280;71372;43.514;1.512;2023-07-09T11:03:17;100364.66;;;27.65
81909;BMP280;71372;43.514;1.512;2023-07-09T11:05:45;100370.00;;;27.63
81909;BMP280;71372;43.514;1.512;2023-07-09T11:08:14;100369.78;;;27.66
81909;BMP280;71372;43.514;1.512;2023-07-09T11:10:46;100377.31;;;27.69
81909;BMP280;71372;43.514;1.512;2023-07-09T11:13:17;100364.84;;;27.72
81909;BMP280;71372;43.514;1.512;2023-07-09T11:15:48;100367.91;;;27.77
81909;BMP280;71372;43.514;1.512;2023-07-09T11:18:23;100363.13;;;27.82
81909;BMP280;71372;43.514;1.512;2023-07-09T11:20:59;100368.09;;;27.85
81909;BMP280;71372;43.514;1.512;2023-07-09T11:23:26;100369.34;;;27.91
81909;BMP280;71372;43.514;1.512;2023-07-09T11:28:50;100369.38;;;28.00
81909;BMP280;71372;43.514;1.512;2023-07-09T11:33:49;100371.03;;;28.01
81909;BMP280;71372;43.514;1.512;2023-07-09T11:36:27;100361.44;;;28.01
81909;BMP280;71372;43.514;1.512;2023-07-09T11:38:54;100357.03;;;28.02
81909;BMP280;71372;43.514;1.512;2023-07-09T11:41:41;100355.94;;;28.04
81909;BMP280;71372;43.514;1.512;2023-07-09T11:44:21;100363.63;;;28.06
81909;BMP280;71372;43.514;1.512;2023-07-09T11:50:01;100364.19;;;28.09
81909;BMP280;71372;43.514;1.512;2023-07-09T11:52:36;100351.03;;;28.11
81909;BMP280;71372;43.514;1.512;2023-07-09T11:55:28;100355.97;;;28.14
81909;BMP280;71372;43.514;1.512;2023-07-09T11:58:00;100355.97;;;28.14
81909;BMP280;71372;43.514;1.512;2023-07-09T12:00:37;100352.28;;;28.16
81909;BMP280;71372;43.514;1.512;2023-07-09T12:03:05;100348.56;;;28.18
81909;BMP280;71372;43.514;1.512;2023-07-09T12:05:32;100346.53;;;28.22
81909;BMP280;71372;43.514;1.512;2023-07-09T12:07:58;100337.59;;;28.24
81909;BMP280;71372;43.514;1.512;2023-07-09T12:10:28;100339.81;;;28.29
81909;BMP280;71372;43.514;1.512;2023-07-09T12:12:56;100334.31;;;28.32
81909;BMP280;71372;43.514;1.512;2023-07-09T12:15:27;100335.13;;;28.32
81909;BMP280;71372;43.514;1.512;2023-07-09T12:18:03;100335.84;;;28.34
81909;BMP280;71372;43.514;1.512;2023-07-09T12:20:35;100336.66;;;28.35
81909;BMP280;71372;43.514;1.512;2023-07-09T12:23:27;100334.50;;;28.40
81909;BMP280;71372;43.514;1.512;2023-07-09T12:25:53;100337.13;;;28.40
81909;BMP280;71372;43.514;1.512;2023-07-09T12:28:21;100326.41;;;28.42
81909;BMP280;71372;43.514;1.512;2023-07-09T12:30:49;100310.63;;;28.44
81909;BMP280;71372;43.514;1.512;2023-07-09T12:33:22;100313.78;;;28.47
81909;BMP280;71372;43.514;1.512;2023-07-09T12:35:56;100327.91;;;28.54
81909;BMP280;71372;43.514;1.512;2023-07-09T12:38:25;100318.19;;;28.56
81909;BMP280;71372;43.514;1.512;2023-07-09T12:40:52;100323.94;;;28.60
81909;BMP280;71372;43.514;1.512;2023-07-09T12:43:25;100328.75;;;28.64
81909;BMP280;71372;43.514;1.512;2023-07-09T12:45:52;100321.72;;;28.65
81909;BMP280;71372;43.514;1.512;2023-07-09T12:48:21;100331.91;;;28.67
81909;BMP280;71372;43.514;1.512;2023-07-09T12:50:50;100319.53;;;28.69
81909;BMP280;71372;43.514;1.512;2023-07-09T12:53:19;100320.09;;;28.73
81909;BMP280;71372;43.514;1.512;2023-07-09T12:55:50;100320.63;;;28.76
81909;BMP280;71372;43.514;1.512;2023-07-09T12:58:28;100322.81;;;28.81
81909;BMP280;71372;43.514;1.512;2023-07-09T13:00:56;100321.03;;;28.81
81909;BMP280;71372;43.514;1.512;2023-07-09T13:03:28;100327.63;;;28.85
81909;BMP280;71372;43.514;1.512;2023-07-09T13:05:57;100330.81;;;28.89
81909;BMP280;71372;43.514;1.512;2023-07-09T13:08:25;100328.88;;;28.90
81909;BMP280;71372;43.514;1.512;2023-07-09T13:10:51;100322.41;;;28.94
81909;BMP280;71372;43.514;1.512;2023-07-09T13:13:20;100321.19;;;28.98
81909;BMP280;71372;43.514;1.512;2023-07-09T13:15:52;100321.75;;;29.02
81909;BMP280;71372;43.514;1.512;2023-07-09T13:18:24;100325.84;;;29.04
81909;BMP280;71372;43.514;1.512;2023-07-09T13:20:56;100314.84;;;29.10
81909;BMP280;71372;43.514;1.512;2023-07-09T13:23:29;100312.94;;;29.12
81909;BMP280;71372;43.514;1.512;2023-07-09T13:25:58;100321.28;;;29.15
81909;BMP280;71372;43.514;1.512;2023-07-09T13:28:30;100319.22;;;29.19
81909;BMP280;71372;43.514;1.512;2023-07-09T13:31:17;100318.00;;;29.23
81909;BMP280;71372;43.514;1.512;2023-07-09T13:33:44;100325.81;;;29.23
81909;BMP280;71372;43.514;1.512;2023-07-09T13:36:13;100320.59;;;29.23
81909;BMP280;71372;43.514;1.512;2023-07-09T13:38:39;100327.47;;;29.24
81909;BMP280;71372;43.514;1.512;2023-07-09T13:41:18;100317.41;;;29.29
81909;BMP280;71372;43.514;1.512;2023-07-09T13:43:48;100321.69;;;29.30
81909;BMP280;71372;43.514;1.512;2023-07-09T13:46:14;100316.16;;;29.33
81909;BMP280;71372;43.514;1.512;2023-07-09T13:48:42;100317.53;;;29.37
81909;BMP280;71372;43.514;1.512;2023-07-09T13:51:21;100311.22;;;29.39
81909;BMP280;71372;43.514;1.512;2023-07-09T13:53:50;100317.91;;;29.41
81909;BMP280;71372;43.514;1.512;2023-07-09T13:56:17;100306.50;;;29.42
81909;BMP280;71372;43.514;1.512;2023-07-09T13:58:43;100297.56;;;29.45
81909;BMP280;71372;43.514;1.512;2023-07-09T14:01:21;100304.94;;;29.49
81909;BMP280;71372;43.514;1.512;2023-07-09T14:03:47;100303.06;;;29.51
81909;BMP280;71372;43.514;1.512;2023-07-09T14:06:16;100302.94;;;29.53
81909;BMP280;71372;43.514;1.512;2023-07-09T14:08:43;100297.53;;;29.54
81909;BMP280;71372;43.514;1.512;2023-07-09T14:11:13;100300.69;;;29.58
81909;BMP280;71372;43.514;1.512;2023-07-09T14:13:40;100293.53;;;29.60
81909;BMP280;71372;43.514;1.512;2023-07-09T14:16:09;100296.84;;;29.62
81909;BMP280;71372;43.514;1.512;2023-07-09T14:18:35;100290.66;;;29.63
81909;BMP280;71372;43.514;1.512;2023-07-09T14:21:09;100294.09;;;29.63
81909;BMP280;71372;43.514;1.512;2023-07-09T14:23:36;100293.09;;;29.64
81909;BMP280;71372;43.514;1.512;2023-07-09T14:26:02;100284.28;;;29.65
81909;BMP280;71372;43.514;1.512;2023-07-09T14:28:28;100293.78;;;29.66
81909;BMP280;71372;43.514;1.512;2023-07-09T14:30:54;100280.72;;;29.66
81909;BMP280;71372;43.514;1.512;2023-07-09T14:33:21;100299.00;;;29.66
81909;BMP280;71372;43.514;1.512;2023-07-09T14:35:48;100298.19;;;29.65